Forside
METAR-TAF:

METAR-TAF

Lufthavne :

Harbin, Kina

Breddekreds: 45-45N, længdekreds: 126-46E, højde: 143 m

Aktuelle vejr

Denne rapport blev lavet for 45 minutter siden, kl. 16:00 UTC
Vind 6 kt fra vest
Temperatur 2°C
Fugtighed 64%
Tryk 1021 hPa
Sigt 10 km eller mere
ingen skyer under 1500m og ingen cumulonimbus

METAR: ZYHB 151600Z 28003MPS CAVOK 02/M04 Q1021 NOSIG

Tid: 00:45 (16:45 UTC)

Vejrudsigter

Denne rapport blev lavet for 7 timer og 44 minutter siden, kl. 09:01 UTC
Foreløbig gælder fra 15 på 12 UTC til 16 på 12 UTC
Vind 8 kt fra nordnordvest
Sigt: 6000 m
Spredte skyer i en højde af 3300 ft

TAF: ZYHB 150901Z 1512/1612 33004MPS 6000 SCT033 TX11/1606Z TNM01/21Z

Vejrobservationer og prognoser fra mere end 4000 lufthavne (METAR og TAF).

De gule og røde prikker repræsenterer de meteorologiske stationer.

Flyt musen over at se navnet på stationen.

Så klik over at se vejr observationer og prognoser.

At skifte det kort: Klik på de grønne knapper med et sort kors for at zoome ind; på den grønne knap med en bindestreg for at zoome ud; eller på de grønne pile for tilstødende kort.


METAR-TAF: